Time;durP1;ratioP1;P1;durP2;ratioP2;P2;SDS_P1;SDS_P2;PMS_P1;PMS_P2;Temp;Humidity;BMP_temperature;BMP_pressure;BME280_temperature;BME280_humidity;BME280_pressure;Samples;Min_cycle;Max_cycle;Signal;HPM_P1;HPM_P2
2023/07/02 00:01:46;;;;;;;19.58;6.20;;;15.60;99.90;;;;;;4958528;28;208675;-71
2023/07/02 00:04:15;;;;;;;20.38;6.50;;;15.60;99.90;;;;;;4989214;28;20627;-71
2023/07/02 00:06:51;;;;;;;19.25;6.55;;;15.60;99.90;;;;;;4960096;28;217494;-72
2023/07/02 00:09:17;;;;;;;19.58;6.70;;;15.60;99.90;;;;;;5003511;28;20058;-71
2023/07/02 00:11:45;;;;;;;21.27;7.20;;;15.60;99.90;;;;;;4935655;28;213224;-72
2023/07/02 00:14:13;;;;;;;22.33;7.40;;;15.60;99.90;;;;;;5003277;28;20066;-72
2023/07/02 00:16:45;;;;;;;27.45;7.38;;;15.60;99.90;;;;;;4985981;28;203306;-72
2023/07/02 00:19:13;;;;;;;23.33;7.40;;;15.60;99.90;;;;;;4998977;28;20049;-71
2023/07/02 00:21:40;;;;;;;22.75;7.70;;;15.50;99.90;;;;;;4915500;28;209607;-71
2023/07/02 00:24:09;;;;;;;24.40;7.53;;;15.50;99.90;;;;;;4988194;28;20058;-71
2023/07/02 00:26:37;;;;;;;19.63;7.28;;;15.50;99.90;;;;;;4938580;28;208568;-71
2023/07/02 00:29:04;;;;;;;22.45;7.65;;;15.50;99.90;;;;;;4984656;28;20050;-72
2023/07/02 00:31:30;;;;;;;22.42;7.97;;;15.40;99.90;;;;;;4934301;28;210872;-72
2023/07/02 00:33:56;;;;;;;26.08;7.35;;;15.40;99.90;;;;;;4985545;28;20061;-72
2023/07/02 00:36:22;;;;;;;24.92;8.13;;;15.30;99.90;;;;;;4937715;28;194579;-71
2023/07/02 00:38:49;;;;;;;30.55;8.38;;;15.30;99.90;;;;;;4989557;28;20050;-71
2023/07/02 00:41:15;;;;;;;21.55;7.82;;;15.30;99.90;;;;;;4953988;28;210968;-71
2023/07/02 00:43:44;;;;;;;22.35;7.68;;;15.20;99.90;;;;;;4991895;28;20058;-71
2023/07/02 00:46:22;;;;;;;25.77;7.82;;;15.20;99.90;;;;;;4950929;28;213276;-71
2023/07/02 00:48:53;;;;;;;22.90;7.72;;;15.10;99.90;;;;;;4991252;28;20054;-71
2023/07/02 00:51:25;;;;;;;24.90;7.93;;;15.10;99.90;;;;;;4958046;28;207796;-71
2023/07/02 00:53:53;;;;;;;18.83;7.22;;;15.00;99.90;;;;;;4990537;28;20057;-71
2023/07/02 00:56:19;;;;;;;22.48;7.95;;;15.00;99.90;;;;;;4960088;28;210380;-71
2023/07/02 00:58:48;;;;;;;27.90;8.57;;;14.90;99.90;;;;;;4996381;28;20799;-72
2023/07/02 01:01:25;;;;;;;23.58;8.82;;;14.90;99.90;;;;;;4939718;28;211641;-71
2023/07/02 01:03:53;;;;;;;25.50;8.38;;;14.90;99.90;;;;;;4989657;28;20065;-72
2023/07/02 01:06:26;;;;;;;28.27;8.30;;;14.80;99.90;;;;;;4942329;28;204937;-71
2023/07/02 01:08:55;;;;;;;21.90;7.80;;;14.80;99.90;;;;;;4990975;28;20058;-71
2023/07/02 01:11:27;;;;;;;23.65;8.15;;;14.80;99.90;;;;;;4950766;28;213668;-72
2023/07/02 01:14:03;;;;;;;22.83;7.85;;;14.70;99.90;;;;;;4987655;28;20537;-71
2023/07/02 01:16:32;;;;;;;26.83;7.63;;;14.60;99.90;;;;;;4951502;28;236511;-70
2023/07/02 01:19:04;;;;;;;25.13;8.63;;;14.60;99.90;;;;;;4987382;28;20518;-71
2023/07/02 01:21:34;;;;;;;29.73;8.60;;;14.60;99.90;;;;;;4936073;28;210549;-72
2023/07/02 01:24:01;;;;;;;30.90;8.27;;;14.60;99.90;;;;;;4988952;28;20058;-72
2023/07/02 01:26:30;;;;;;;24.35;8.32;;;14.50;99.90;;;;;;4971914;28;207636;-71
2023/07/02 01:28:56;;;;;;;24.23;8.05;;;14.50;99.90;;;;;;4991227;28;20729;-72
2023/07/02 01:31:24;;;;;;;21.73;8.27;;;14.50;99.90;;;;;;4952398;28;207981;-71
2023/07/02 01:33:52;;;;;;;21.75;8.05;;;14.40;99.90;;;;;;4989561;28;20057;-71
2023/07/02 01:36:18;;;;;;;23.70;8.15;;;14.30;99.90;;;;;;4964816;28;189919;-71
2023/07/02 01:38:44;;;;;;;24.60;8.77;;;14.30;99.90;;;;;;4993626;28;20057;-71
2023/07/02 01:41:10;;;;;;;26.48;8.55;;;14.30;99.90;;;;;;4957089;28;209875;-72
2023/07/02 01:43:36;;;;;;;26.42;8.73;;;14.20;99.90;;;;;;4991941;28;20046;-72
2023/07/02 01:46:02;;;;;;;25.55;8.60;;;14.20;99.90;;;;;;4962921;28;213421;-71
2023/07/02 01:48:29;;;;;;;27.13;8.50;;;14.10;99.90;;;;;;5002664;28;20050;-72
2023/07/02 01:50:55;;;;;;;25.58;8.63;;;14.10;99.90;;;;;;4952237;28;212188;-71
2023/07/02 01:53:21;;;;;;;25.92;8.25;;;14.10;99.90;;;;;;4999205;28;20058;-71
2023/07/02 01:55:47;;;;;;;23.00;9.05;;;14.00;99.90;;;;;;4928498;28;210580;-71
2023/07/02 01:58:13;;;;;;;31.00;9.55;;;14.00;99.90;;;;;;4993072;28;20519;-72
2023/07/02 02:00:39;;;;;;;27.17;8.63;;;13.90;99.90;;;;;;4953264;28;207956;-71
2023/07/02 02:03:06;;;;;;;29.35;8.75;;;13.90;99.90;;;;;;4995974;28;20046;-72
2023/07/02 02:05:32;;;;;;;25.83;9.15;;;13.90;99.90;;;;;;4933346;28;208001;-72
2023/07/02 02:07:58;;;;;;;28.05;8.63;;;13.80;99.90;;;;;;4986134;28;20519;-71
2023/07/02 02:10:24;;;;;;;32.30;9.32;;;13.80;99.90;;;;;;4943940;28;177376;-71
2023/07/02 02:12:50;;;;;;;31.70;9.20;;;13.80;99.90;;;;;;4998276;28;20606;-71
2023/07/02 02:15:16;;;;;;;28.52;9.02;;;13.70;99.90;;;;;;4959097;28;209257;-71
2023/07/02 02:17:42;;;;;;;30.30;9.75;;;13.70;99.90;;;;;;5011995;28;20054;-71
2023/07/02 02:20:09;;;;;;;25.95;8.95;;;13.70;99.90;;;;;;4939480;28;207564;-71
2023/07/02 02:22:36;;;;;;;29.67;9.38;;;13.70;99.90;;;;;;4988961;28;20106;-71
2023/07/02 02:25:03;;;;;;;29.38;9.07;;;13.60;99.90;;;;;;4955003;28;207945;-71
2023/07/02 02:27:29;;;;;;;30.35;9.25;;;13.60;99.90;;;;;;5007294;28;20070;-71
2023/07/02 02:29:55;;;;;;;25.33;8.80;;;13.60;99.90;;;;;;4949030;28;89301;-70
2023/07/02 02:32:22;;;;;;;25.13;8.52;;;13.60;99.90;;;;;;5000768;28;20061;-71
2023/07/02 02:34:48;;;;;;;26.40;8.73;;;13.50;99.90;;;;;;4931262;28;214115;-71
2023/07/02 02:37:14;;;;;;;32.47;9.05;;;13.50;99.90;;;;;;5010350;28;20069;-71
2023/07/02 02:39:40;;;;;;;30.63;9.32;;;13.50;99.90;;;;;;4925350;28;211913;-70
2023/07/02 02:42:06;;;;;;;31.15;9.07;;;13.50;99.90;;;;;;4990974;28;20057;-71
2023/07/02 02:44:33;;;;;;;25.05;9.15;;;13.40;99.90;;;;;;4949433;28;206984;-70
2023/07/02 02:46:59;;;;;;;26.30;9.10;;;13.40;99.90;;;;;;5011407;28;20131;-71
2023/07/02 02:49:25;;;;;;;28.00;8.75;;;13.40;99.90;;;;;;5012028;28;20073;-71
2023/07/02 02:51:51;;;;;;;26.67;8.85;;;13.40;99.90;;;;;;4952123;28;196704;-70
2023/07/02 02:54:17;;;;;;;28.88;9.00;;;13.40;99.90;;;;;;4990772;28;20046;-70
2023/07/02 02:56:43;;;;;;;34.42;9.90;;;13.40;99.90;;;;;;4917469;28;207768;-70
2023/07/02 02:59:09;;;;;;;29.35;9.18;;;13.30;99.90;;;;;;4986469;28;20050;-71
2023/07/02 03:01:36;;;;;;;29.88;10.13;;;13.30;99.90;;;;;;4955504;28;209740;-71
2023/07/02 03:04:02;;;;;;;23.90;8.75;;;13.30;99.90;;;;;;4986515;28;20427;-70
2023/07/02 03:06:28;;;;;;;31.17;9.48;;;13.20;99.90;;;;;;4939863;28;209009;-71
2023/07/02 03:08:54;;;;;;;27.08;9.18;;;13.20;99.90;;;;;;4986737;28;20057;-71
2023/07/02 03:11:20;;;;;;;28.35;9.43;;;13.20;99.90;;;;;;4985135;28;206863;-71
2023/07/02 03:13:47;;;;;;;28.60;9.52;;;13.20;99.90;;;;;;5006204;28;20435;-71
2023/07/02 03:16:13;;;;;;;24.60;8.93;;;13.20;99.90;;;;;;4940319;28;212433;-71
2023/07/02 03:18:40;;;;;;;28.45;9.60;;;13.10;99.90;;;;;;4990578;28;20407;-71
2023/07/02 03:21:06;;;;;;;34.03;9.68;;;13.10;99.90;;;;;;4941729;28;211506;-70
2023/07/02 03:23:32;;;;;;;30.50;9.27;;;13.10;99.90;;;;;;4987857;28;20054;-71
2023/07/02 03:25:58;;;;;;;30.52;9.13;;;13.10;99.90;;;;;;4943032;28;209982;-71
2023/07/02 03:28:24;;;;;;;29.40;9.35;;;13.10;99.90;;;;;;4993450;28;20053;-70
2023/07/02 03:30:50;;;;;;;30.23;9.05;;;13.10;99.90;;;;;;4953466;28;208598;-71
2023/07/02 03:33:16;;;;;;;26.38;8.98;;;13.10;99.90;;;;;;4998732;28;20042;-71
2023/07/02 03:35:42;;;;;;;31.88;9.77;;;13.10;99.90;;;;;;4945117;28;209226;-70
2023/07/02 03:38:08;;;;;;;27.75;9.27;;;13.10;99.90;;;;;;4991989;28;20057;-71
2023/07/02 03:40:35;;;;;;;30.48;9.68;;;13.10;99.90;;;;;;4949435;28;206986;-71
2023/07/02 03:43:01;;;;;;;31.40;9.60;;;13.10;99.90;;;;;;5000556;28;20058;-71
2023/07/02 03:45:27;;;;;;;32.50;9.32;;;13.10;99.90;;;;;;4950636;28;208897;-70
2023/07/02 03:47:53;;;;;;;31.33;9.95;;;13.10;99.90;;;;;;5003498;28;20058;-71
2023/07/02 03:50:19;;;;;;;25.88;8.95;;;13.10;99.90;;;;;;4940906;28;211442;-69
2023/07/02 03:52:45;;;;;;;26.25;9.70;;;13.20;99.90;;;;;;5000642;28;20045;-70
2023/07/02 03:55:12;;;;;;;27.77;9.45;;;13.20;99.90;;;;;;4924184;28;209971;-70
2023/07/02 03:57:38;;;;;;;31.65;9.52;;;13.20;99.90;;;;;;4981892;28;20054;-70
2023/07/02 04:00:05;;;;;;;27.48;9.55;;;13.20;99.90;;;;;;4936849;28;209427;-70
2023/07/02 04:02:31;;;;;;;32.90;10.38;;;13.20;99.90;;;;;;5029188;28;20061;-70
2023/07/02 04:04:57;;;;;;;29.42;8.73;;;13.20;99.90;;;;;;4960265;28;204845;-70
2023/07/02 04:07:23;;;;;;;27.65;9.13;;;13.20;99.90;;;;;;5009103;28;20062;-71
2023/07/02 04:09:50;;;;;;;26.23;9.23;;;13.20;99.90;;;;;;4923668;28;210141;-71
2023/07/02 04:12:16;;;;;;;30.00;9.85;;;13.20;99.90;;;;;;4996766;28;20053;-71
2023/07/02 04:14:42;;;;;;;27.85;9.73;;;13.20;99.90;;;;;;4927199;28;207674;-70
2023/07/02 04:17:08;;;;;;;29.17;9.07;;;13.30;99.90;;;;;;5001148;28;20065;-70
2023/07/02 04:19:34;;;;;;;28.30;10.03;;;13.30;99.90;;;;;;4940421;28;213063;-69
2023/07/02 04:22:00;;;;;;;30.42;10.00;;;13.40;99.90;;;;;;5003295;28;20038;-71
2023/07/02 04:24:27;;;;;;;26.50;8.90;;;13.40;99.90;;;;;;4986305;28;20065;-70
2023/07/02 04:26:53;;;;;;;27.90;9.13;;;13.50;99.90;;;;;;4926601;28;264241;-71
2023/07/02 04:29:20;;;;;;;27.75;9.43;;;13.60;99.90;;;;;;4986506;28;20046;-71
2023/07/02 04:31:46;;;;;;;29.50;9.02;;;13.70;99.90;;;;;;4954305;28;206869;-71
2023/07/02 04:34:12;;;;;;;28.35;8.90;;;13.80;99.90;;;;;;4990896;28;20061;-71
2023/07/02 04:36:38;;;;;;;29.25;9.02;;;13.90;99.90;;;;;;4944588;28;101532;-71
2023/07/02 04:39:04;;;;;;;25.08;8.32;;;14.00;99.90;;;;;;4986659;28;20050;-71
2023/07/02 04:41:32;;;;;;;29.30;8.75;;;14.10;99.90;;;;;;4979933;28;211088;-71
2023/07/02 04:43:58;;;;;;;25.30;9.10;;;14.30;99.90;;;;;;4989412;28;20049;-71
2023/07/02 04:46:24;;;;;;;29.52;9.70;;;14.30;99.90;;;;;;4965014;28;212582;-71
2023/07/02 04:48:51;;;;;;;27.17;7.70;;;14.40;99.90;;;;;;5007918;28;20050;-71
2023/07/02 04:51:17;;;;;;;25.05;8.20;;;14.40;99.90;;;;;;4958585;28;211036;-71
2023/07/02 04:53:43;;;;;;;30.50;8.63;;;14.50;99.90;;;;;;4987756;28;20053;-71
2023/07/02 04:56:09;;;;;;;28.13;9.00;;;14.60;99.90;;;;;;4939665;28;207921;-71
2023/07/02 04:58:35;;;;;;;28.83;8.30;;;14.60;99.90;;;;;;4991916;28;20061;-71
2023/07/02 05:01:01;;;;;;;28.10;8.52;;;14.70;99.90;;;;;;4930732;28;216472;-71
2023/07/02 05:03:27;;;;;;;29.33;8.38;;;14.80;99.90;;;;;;4985701;28;20503;-71
2023/07/02 05:05:53;;;;;;;25.85;7.95;;;14.90;99.90;;;;;;4935755;28;204505;-71
2023/07/02 05:08:19;;;;;;;25.83;8.52;;;15.00;99.90;;;;;;4984950;28;20054;-71
2023/07/02 05:10:46;;;;;;;21.45;7.43;;;15.00;99.90;;;;;;4946321;28;207241;-71
2023/07/02 05:13:12;;;;;;;25.20;7.40;;;15.10;99.90;;;;;;4996569;28;20050;-71
2023/07/02 05:15:38;;;;;;;27.13;7.75;;;15.20;99.90;;;;;;4937685;28;208290;-72
2023/07/02 05:18:04;;;;;;;26.52;8.02;;;15.30;99.90;;;;;;4993655;28;20053;-71
2023/07/02 05:20:30;;;;;;;24.73;7.10;;;15.40;99.90;;;;;;4952777;28;102232;-71
2023/07/02 05:22:56;;;;;;;21.70;7.05;;;15.40;99.90;;;;;;4992785;28;20046;-71
2023/07/02 05:25:23;;;;;;;25.13;7.35;;;15.50;99.90;;;;;;4952876;28;210943;-70
2023/07/02 05:27:49;;;;;;;24.67;6.70;;;15.60;99.90;;;;;;4998970;28;20042;-71
2023/07/02 05:30:15;;;;;;;23.33;7.25;;;15.60;99.90;;;;;;4947743;28;207460;-72
2023/07/02 05:32:42;;;;;;;25.38;6.88;;;15.70;99.90;;;;;;5009343;28;20046;-71
2023/07/02 05:35:08;;;;;;;23.42;7.03;;;15.80;99.90;;;;;;4943429;28;208910;-71
2023/07/02 05:37:34;;;;;;;24.27;7.18;;;15.90;99.90;;;;;;5009558;28;20061;-71
2023/07/02 05:40:00;;;;;;;23.48;7.13;;;16.00;99.90;;;;;;4943616;28;216169;-70
2023/07/02 05:42:26;;;;;;;24.05;7.07;;;16.00;99.90;;;;;;5014363;28;20054;-71
2023/07/02 05:44:52;;;;;;;22.85;6.95;;;16.10;99.90;;;;;;4935168;28;210777;-71
2023/07/02 05:47:19;;;;;;;21.33;7.07;;;16.20;99.90;;;;;;4970572;28;20069;-73
2023/07/02 05:49:45;;;;;;;22.73;6.88;;;16.30;99.90;;;;;;4943947;28;203161;-71
2023/07/02 05:52:11;;;;;;;21.30;6.20;;;16.50;99.90;;;;;;4985094;28;20050;-71
2023/07/02 05:54:41;;;;;;;24.90;6.47;;;16.60;99.90;;;;;;4931332;28;206805;-69
2023/07/02 05:57:07;;;;;;;22.13;6.93;;;16.70;99.90;;;;;;4961109;28;135245;-71
2023/07/02 05:59:33;;;;;;;25.05;6.18;;;16.70;99.90;;;;;;4954235;28;209411;-69
2023/07/02 06:02:00;;;;;;;20.05;5.88;;;16.70;99.90;;;;;;5003202;28;20050;-71
2023/07/02 06:04:26;;;;;;;20.48;5.68;;;16.90;99.90;;;;;;4990551;28;20972;-71
2023/07/02 06:06:52;;;;;;;21.77;5.95;;;16.90;99.90;;;;;;4991323;28;207798;-72
2023/07/02 06:09:18;;;;;;;23.08;6.68;;;16.80;99.90;;;;;;5014362;28;20407;-71
2023/07/02 06:11:44;;;;;;;19.63;5.88;;;16.80;99.90;;;;;;4967943;28;217032;-72
2023/07/02 06:14:10;;;;;;;21.80;6.35;;;16.80;99.90;;;;;;4992241;28;20054;-72
2023/07/02 06:16:36;;;;;;;18.83;6.00;;;16.90;99.90;;;;;;4950393;28;205287;-72
2023/07/02 06:19:02;;;;;;;18.30;5.93;;;17.00;99.90;;;;;;4990878;28;20080;-71
2023/07/02 06:21:30;;;;;;;20.50;6.20;;;17.30;99.90;;;;;;4947500;28;253996;-72
2023/07/02 06:23:58;;;;;;;18.10;5.78;;;17.60;99.90;;;;;;4988364;28;20065;-72
2023/07/02 06:26:24;;;;;;;15.55;5.15;;;17.60;99.90;;;;;;4943530;28;207768;-74
2023/07/02 06:28:50;;;;;;;21.73;5.53;;;17.50;99.90;;;;;;4988564;28;20057;-72
2023/07/02 06:31:16;;;;;;;24.00;6.15;;;17.60;99.90;;;;;;4962166;28;219241;-72
2023/07/02 06:33:43;;;;;;;18.15;5.28;;;17.80;99.90;;;;;;4994940;28;20063;-73
2023/07/02 06:36:09;;;;;;;17.75;4.82;;;17.80;99.90;;;;;;4949035;28;214173;-71
2023/07/02 06:38:35;;;;;;;20.33;5.75;;;17.60;99.90;;;;;;4993939;28;20062;-73
2023/07/02 06:41:01;;;;;;;17.00;5.43;;;17.50;99.90;;;;;;4942653;28;189519;-72
2023/07/02 06:43:27;;;;;;;15.80;5.25;;;17.40;99.90;;;;;;4992731;28;20575;-73
2023/07/02 06:45:53;;;;;;;19.52;5.50;;;17.30;99.90;;;;;;4938783;28;206244;-74
2023/07/02 06:48:21;;;;;;;20.20;5.90;;;17.60;99.90;;;;;;4969297;28;20424;-73
2023/07/02 06:50:47;;;;;;;20.15;5.78;;;17.90;99.90;;;;;;4946123;28;209821;-73
2023/07/02 06:53:13;;;;;;;20.40;5.30;;;17.90;99.90;;;;;;5004219;28;20050;-73
2023/07/02 06:55:39;;;;;;;18.98;5.00;;;17.80;99.90;;;;;;4926914;28;231976;-73
2023/07/02 06:58:06;;;;;;;18.13;5.00;;;17.60;99.90;;;;;;4987963;28;20057;-73
2023/07/02 07:00:35;;;;;;;15.27;4.47;;;17.80;99.90;;;;;;4946361;28;142988;-74
2023/07/02 07:03:04;;;;;;;15.63;4.60;;;17.90;98.90;;;;;;4996381;28;20057;-75
2023/07/02 07:05:32;;;;;;;17.15;4.70;;;18.00;99.10;;;;;;4943413;28;213393;-75
2023/07/02 07:08:00;;;;;;;17.50;4.18;;;17.90;99.60;;;;;;4986269;28;20054;-73
2023/07/02 07:10:27;;;;;;;15.23;4.03;;;18.00;98.70;;;;;;4949531;28;215424;-74
2023/07/02 07:12:53;;;;;;;14.63;3.92;;;17.80;99.30;;;;;;4991449;28;20062;-74
2023/07/02 07:15:19;;;;;;;17.08;3.78;;;17.90;98.50;;;;;;4922336;28;216100;-73
2023/07/02 07:17:45;;;;;;;12.13;3.15;;;18.20;97.70;;;;;;4980750;28;20399;-74
2023/07/02 07:20:12;;;;;;;12.80;2.88;;;18.60;97.70;;;;;;4942110;28;177455;-74
2023/07/02 07:22:38;;;;;;;14.10;3.38;;;18.80;97.10;;;;;;5005931;28;20608;-73
2023/07/02 07:25:04;;;;;;;18.08;3.80;;;18.80;97.20;;;;;;4944051;28;227910;-71
2023/07/02 07:27:30;;;;;;;13.23;3.42;;;18.70;97.90;;;;;;5011352;28;20053;-70
2023/07/02 07:29:56;;;;;;;13.10;3.58;;;19.20;97.10;;;;;;4938495;28;207981;-72
2023/07/02 07:32:22;;;;;;;14.43;3.05;;;19.20;96.50;;;;;;4984838;28;20057;-73
2023/07/02 07:34:49;;;;;;;14.07;3.33;;;18.90;96.90;;;;;;4948987;28;207173;-74
2023/07/02 07:37:15;;;;;;;15.98;3.78;;;18.70;97.50;;;;;;5008093;28;20042;-73
2023/07/02 07:39:41;;;;;;;13.20;3.20;;;18.70;98.10;;;;;;4929681;28;209324;-73
2023/07/02 07:42:07;;;;;;;13.32;3.20;;;18.60;97.40;;;;;;4987954;28;20532;-74
2023/07/02 07:44:33;;;;;;;12.25;2.83;;;18.80;97.40;;;;;;4945966;28;207998;-71
2023/07/02 07:47:00;;;;;;;14.55;3.13;;;18.60;97.20;;;;;;5009171;28;20053;-72
2023/07/02 07:49:26;;;;;;;10.52;3.08;;;18.40;96.90;;;;;;5014551;28;20076;-74
2023/07/02 07:51:52;;;;;;;12.38;3.25;;;18.10;97.50;;;;;;4938456;28;202910;-73
2023/07/02 07:54:18;;;;;;;14.35;3.33;;;17.80;97.20;;;;;;5014493;28;20054;-73
2023/07/02 07:56:44;;;;;;;14.85;3.50;;;17.50;97.90;;;;;;4964975;28;210879;-74
2023/07/02 07:59:13;;;;;;;15.75;3.70;;;17.40;98.80;;;;;;4996345;28;20057;-73
2023/07/02 08:01:39;;;;;;;14.95;3.70;;;17.20;99.20;;;;;;4939832;28;223840;-73
2023/07/02 08:04:05;;;;;;;15.93;3.90;;;17.20;99.70;;;;;;4987247;28;20346;-72
2023/07/02 08:06:31;;;;;;;22.17;4.45;;;17.80;99.70;;;;;;4941787;28;209416;-74
2023/07/02 08:08:57;;;;;;;15.02;3.53;;;18.50;99.20;;;;;;4991817;28;20046;-74
2023/07/02 08:11:23;;;;;;;12.43;3.53;;;19.00;98.90;;;;;;4959955;28;207839;-72
2023/07/02 08:13:50;;;;;;;15.20;3.25;;;19.50;98.20;;;;;;4995633;28;20061;-73
2023/07/02 08:16:16;;;;;;;15.93;3.55;;;19.00;98.00;;;;;;4941539;28;221722;-72
2023/07/02 08:18:42;;;;;;;17.50;3.08;;;18.40;97.70;;;;;;5011984;28;20051;-74
2023/07/02 08:21:08;;;;;;;12.05;2.90;;;18.10;97.40;;;;;;4964545;28;211125;-73
2023/07/02 08:23:34;;;;;;;14.70;3.33;;;17.90;98.00;;;;;;4997345;28;20042;-74
2023/07/02 08:26:01;;;;;;;12.23;3.00;;;17.90;98.40;;;;;;4957526;28;210474;-75
2023/07/02 08:28:27;;;;;;;15.20;3.20;;;18.20;98.00;;;;;;4995902;28;20062;-75
2023/07/02 08:30:53;;;;;;;14.85;3.22;;;18.70;97.40;;;;;;4939720;28;232914;-73
2023/07/02 08:33:20;;;;;;;17.67;3.80;;;18.60;97.20;;;;;;4995337;28;20478;-73
2023/07/02 08:35:46;;;;;;;13.68;3.65;;;18.30;97.70;;;;;;4957275;28;210107;-73
2023/07/02 08:38:12;;;;;;;12.25;3.38;;;18.30;98.30;;;;;;5008587;28;20061;-74
2023/07/02 08:40:38;;;;;;;17.88;3.30;;;18.20;98.20;;;;;;4959649;28;213311;-74
2023/07/02 08:43:04;;;;;;;14.50;3.72;;;18.00;98.10;;;;;;5014952;28;20061;-72
2023/07/02 08:45:31;;;;;;;16.92;3.63;;;18.00;98.50;;;;;;4960421;28;216348;-74
2023/07/02 08:47:58;;;;;;;12.82;3.63;;;17.90;98.70;;;;;;5008923;28;20048;-73
2023/07/02 08:50:24;;;;;;;12.93;3.65;;;18.00;98.50;;;;;;4962292;28;214065;-71
2023/07/02 08:52:53;;;;;;;15.30;4.30;;;18.40;98.40;;;;;;5026175;28;20069;-73
2023/07/02 08:55:19;;;;;;;21.30;4.55;;;19.00;98.00;;;;;;4970611;28;80928;-73
2023/07/02 08:57:59;;;;;;;17.60;4.50;;;19.30;98.00;;;;;;4994109;28;20050;-73
2023/07/02 09:00:26;;;;;;;17.98;4.75;;;19.80;98.10;;;;;;4936174;28;206951;-73
2023/07/02 09:02:52;;;;;;;15.75;4.20;;;20.50;97.30;;;;;;4984722;28;20050;-73
2023/07/02 09:05:18;;;;;;;17.45;4.30;;;20.10;97.60;;;;;;4952875;28;218378;-72
2023/07/02 09:07:46;;;;;;;16.70;4.47;;;19.70;97.40;;;;;;5010140;28;20050;-71
2023/07/02 09:10:25;;;;;;;17.23;4.10;;;20.10;97.50;;;;;;4954764;28;165926;-72
2023/07/02 09:12:51;;;;;;;16.58;4.38;;;19.90;97.70;;;;;;5011260;28;20061;-72
2023/07/02 09:15:19;;;;;;;14.20;4.03;;;19.60;98.00;;;;;;4943320;28;206390;-72
2023/07/02 09:17:45;;;;;;;15.63;4.28;;;19.30;98.40;;;;;;5005442;28;20062;-72
2023/07/02 09:20:12;;;;;;;15.43;4.35;;;18.90;98.70;;;;;;4942432;28;214118;-74
2023/07/02 09:22:40;;;;;;;18.55;4.88;;;18.50;99.00;;;;;;5008720;28;20088;-73
2023/07/02 09:25:07;;;;;;;19.83;5.25;;;18.30;99.50;;;;;;4938557;28;154148;-73
2023/07/02 09:27:41;;;;;;;15.52;4.68;;;18.20;99.70;;;;;;5017946;28;20722;-73
2023/07/02 09:30:15;;;;;;;19.98;4.28;;;18.30;99.80;;;;;;4941455;28;212839;-73
2023/07/02 09:32:45;;;;;;;16.15;4.07;;;18.20;99.70;;;;;;4994717;28;20046;-73
2023/07/02 09:35:12;;;;;;;16.52;3.78;;;18.00;99.70;;;;;;4942230;28;209600;-73
2023/07/02 09:37:41;;;;;;;14.55;3.42;;;17.70;99.80;;;;;;4974417;28;20411;-72
2023/07/02 09:40:08;;;;;;;11.75;3.40;;;17.40;99.80;;;;;;4970012;28;210325;-73
2023/07/02 09:42:40;;;;;;;14.45;3.75;;;17.30;99.90;;;;;;5011057;28;20054;-72
2023/07/02 09:45:08;;;;;;;17.63;3.85;;;17.20;99.90;;;;;;4947045;28;159964;-71
2023/07/02 09:47:42;;;;;;;15.82;4.38;;;17.20;99.90;;;;;;4990769;28;20053;-72
2023/07/02 09:50:10;;;;;;;15.95;3.88;;;17.30;99.90;;;;;;4949356;28;61932;-71
2023/07/02 09:52:36;;;;;;;14.35;4.00;;;17.70;99.90;;;;;;4989104;28;20054;-71
2023/07/02 09:55:04;;;;;;;17.30;4.38;;;19.10;99.50;;;;;;4917938;28;213007;-71
2023/07/02 09:57:31;;;;;;;14.85;3.92;;;20.10;98.60;;;;;;5003543;28;20515;-73
2023/07/02 10:00:02;;;;;;;20.70;4.47;;;20.40;97.50;;;;;;4942426;28;220583;-72
2023/07/02 10:02:29;;;;;;;15.38;4.10;;;20.60;97.50;;;;;;5020748;28;20067;-70
2023/07/02 10:04:55;;;;;;;16.35;3.72;;;20.70;97.10;;;;;;4940156;28;211940;-72
2023/07/02 10:07:34;;;;;;;13.30;4.07;;;20.30;97.10;;;;;;4994108;28;20066;-71
2023/07/02 10:10:01;;;;;;;19.80;4.35;;;19.80;97.80;;;;;;4939757;28;211049;-72
2023/07/02 10:12:28;;;;;;;14.52;3.83;;;19.50;98.50;;;;;;4999774;28;20407;-71
2023/07/02 10:14:56;;;;;;;13.43;3.60;;;19.40;97.90;;;;;;4940240;28;210804;-71
2023/07/02 10:17:28;;;;;;;11.50;2.92;;;19.90;97.60;;;;;;5020010;28;20049;-71
2023/07/02 10:19:56;;;;;;;13.50;2.60;;;20.80;95.50;;;;;;4961800;28;235170;-73
2023/07/02 10:22:22;;;;;;;13.68;2.80;;;21.50;94.50;;;;;;5027578;28;20051;-70
2023/07/02 10:25:01;;;;;;;13.10;2.50;;;20.90;94.50;;;;;;4927490;28;207616;-71
2023/07/02 10:27:39;;;;;;;10.05;2.47;;;21.30;93.70;;;;;;4990311;28;20058;-71
2023/07/02 10:30:06;;;;;;;13.38;2.53;;;20.90;92.50;;;;;;4949338;28;156080;-70
2023/07/02 10:32:35;;;;;;;12.23;3.08;;;20.50;93.90;;;;;;4988223;28;20050;-70
2023/07/02 10:35:12;;;;;;;11.90;2.80;;;20.10;94.70;;;;;;4965339;28;206597;-70
2023/07/02 10:37:38;;;;;;;15.95;3.00;;;20.00;95.20;;;;;;5024834;28;20065;-70
2023/07/02 10:40:07;;;;;;;11.68;3.30;;;20.80;95.20;;;;;;4953182;28;163687;-71
2023/07/02 10:42:34;;;;;;;15.88;3.30;;;21.50;93.90;;;;;;5018161;28;20050;-72
2023/07/02 10:45:00;;;;;;;12.13;3.17;;;21.50;94.50;;;;;;4934511;28;217261;-70
2023/07/02 10:47:28;;;;;;;13.70;3.60;;;21.70;93.90;;;;;;5010062;28;20397;-70
2023/07/02 10:49:54;;;;;;;12.02;2.95;;;22.10;94.30;;;;;;4935061;28;212850;-72
2023/07/02 10:52:21;;;;;;;10.48;2.63;;;22.60;93.90;;;;;;4980430;28;20057;-70
2023/07/02 10:54:48;;;;;;;13.07;2.97;;;22.20;93.20;;;;;;4920604;28;242301;-70
2023/07/02 10:57:21;;;;;;;11.90;3.22;;;22.40;93.60;;;;;;5029114;28;20120;-70
2023/07/02 10:59:48;;;;;;;12.55;2.80;;;22.10;93.90;;;;;;4941104;28;209430;-70
2023/07/02 11:02:15;;;;;;;15.95;2.85;;;21.70;93.60;;;;;;5018239;28;20053;-71
2023/07/02 11:04:41;;;;;;;16.92;3.50;;;21.70;93.40;;;;;;4929724;28;280141;-70
2023/07/02 11:07:10;;;;;;;14.02;3.17;;;20.90;94.00;;;;;;5000249;28;20058;-71
2023/07/02 11:09:36;;;;;;;14.47;2.90;;;20.50;94.10;;;;;;4954414;28;206697;-73
2023/07/02 11:12:02;;;;;;;13.63;3.00;;;20.10;94.60;;;;;;4931714;28;20405;-71
2023/07/02 11:14:36;;;;;;;14.07;3.00;;;20.70;94.20;;;;;;4987589;28;20069;-70
2023/07/02 11:17:06;;;;;;;10.63;3.10;;;21.10;94.20;;;;;;4930989;28;77788;-69
2023/07/02 11:19:33;;;;;;;12.77;3.20;;;20.90;94.40;;;;;;4992579;28;226348;-70
2023/07/02 11:22:00;;;;;;;14.25;3.45;;;20.80;94.20;;;;;;4993338;28;205569;-69
2023/07/02 11:24:29;;;;;;;8.95;2.35;;;20.50;94.80;;;;;;5004186;28;20514;-70
2023/07/02 11:26:56;;;;;;;12.73;2.65;;;20.70;94.30;;;;;;4971056;28;227192;-69
2023/07/02 11:29:22;;;;;;;10.35;2.80;;;20.90;94.50;;;;;;4989645;28;20238;-70
2023/07/02 11:31:48;;;;;;;13.07;3.05;;;21.20;94.10;;;;;;4961919;28;210621;-68
2023/07/02 11:34:16;;;;;;;20.00;2.97;;;20.90;94.30;;;;;;4986102;28;20721;-69
2023/07/02 11:36:42;;;;;;;13.15;3.20;;;20.80;94.60;;;;;;4936086;28;168934;-69
2023/07/02 11:39:09;;;;;;;12.98;3.10;;;21.10;94.40;;;;;;4990419;28;20243;-68
2023/07/02 11:41:43;;;;;;;12.40;3.45;;;21.60;94.30;;;;;;4925190;28;209400;-69
2023/07/02 11:44:09;;;;;;;12.57;3.00;;;22.10;93.90;;;;;;4990360;28;20058;-69
2023/07/02 11:46:36;;;;;;;13.45;2.70;;;21.80;94.00;;;;;;4941286;28;212718;-68
2023/07/02 11:49:08;;;;;;;16.67;3.35;;;21.80;94.00;;;;;;4988558;28;20046;-68
2023/07/02 11:51:38;;;;;;;11.70;2.88;;;21.30;94.00;;;;;;4967468;28;208272;-68
2023/07/02 11:54:05;;;;;;;13.30;3.30;;;20.80;94.20;;;;;;4989264;28;20062;-68
2023/07/02 11:56:32;;;;;;;12.85;2.88;;;20.60;94.40;;;;;;4953811;28;207430;-68
2023/07/02 11:58:59;;;;;;;12.30;3.03;;;20.30;94.50;;;;;;4989928;28;20054;-67
2023/07/02 12:01:25;;;;;;;14.90;4.40;;;20.30;94.50;;;;;;4942978;28;212974;-69
2023/07/02 12:03:51;;;;;;;12.93;3.30;;;20.70;94.50;;;;;;4986145;28;20058;-69
2023/07/02 12:06:17;;;;;;;11.93;2.38;;;21.20;93.50;;;;;;4937301;28;204204;-69
2023/07/02 12:08:43;;;;;;;12.63;2.50;;;21.60;92.60;;;;;;5001086;28;20046;-69
2023/07/02 12:11:11;;;;;;;10.43;2.17;;;21.90;92.40;;;;;;4945840;28;210574;-69
2023/07/02 12:13:37;;;;;;;9.73;2.40;;;21.60;92.50;;;;;;4987605;28;20068;-70
2023/07/02 12:16:03;;;;;;;11.43;2.38;;;21.20;92.90;;;;;;4933039;28;212091;-69
2023/07/02 12:18:29;;;;;;;11.15;2.30;;;20.80;93.50;;;;;;4988930;28;20057;-67
2023/07/02 12:20:58;;;;;;;10.68;2.38;;;20.40;93.40;;;;;;4963839;28;210316;-68
2023/07/02 12:23:24;;;;;;;12.13;2.42;;;20.60;93.60;;;;;;5005971;28;20065;-69
2023/07/02 12:25:50;;;;;;;9.70;2.20;;;20.60;93.10;;;;;;4955183;28;210402;-68
2023/07/02 12:28:16;;;;;;;10.20;2.30;;;20.60;93.30;;;;;;5011124;28;20057;-68
2023/07/02 12:30:43;;;;;;;10.60;2.15;;;20.30;93.00;;;;;;4960441;28;209755;-68
2023/07/02 12:33:09;;;;;;;10.25;2.20;;;20.10;92.90;;;;;;4997416;28;20061;-68